Disclaimer

Please do not use the information listed here in-flight or in-navigation, as they are not provided to us by the airports but are provided by volunteers, so they might be outdated.

Search


Regions


Airport information page

Radio informations:
Automatic Terminal Information Service (ATIS) - 126.2 MHz

Airport informations:
Latitude: 53° 44' 24.00" N
Longitude: 091° 23' 06.00" E
Elevation: 831 feet - 253 meters
Operating hours: 24 hour operations
Operating agency: Civil government, landing fees and diplomatic clearance may be required
Timezone: UTC+7(+8DT) - Last Sunday in March to last Sunday in October
Fuel: N/A

Runway information:
02C/20C - 8202 x 263 feet< - >2500 x 80 meters
02R/20L - 10663 x 148 feet< - >3250 x 45 meters
02L/20R - 4265 x 92 feet< - >1300 x 28 meters

Recent METARs:
UNAA 151030Z 22009MPS CAVOK M02/M13 Q1028 R20/190060 NOSIG RMK QFE748
UNAA 151100Z 21009MPS 9999 -SHSN SCT041CB M03/M12 Q1028 R20/190060 NOSIG RMK QFE748
UNAA 151130Z 22008MPS 9999 SCT046CB M02/M12 Q1028 R20/190060 NOSIG RMK QFE748

Airport on the map: